Time;durP1;ratioP1;P1;durP2;ratioP2;P2;SDS_P1;SDS_P2;PMS_P1;PMS_P2;Temp;Humidity;BMP_temperature;BMP_pressure;BME280_temperature;BME280_humidity;BME280_pressure;Samples;Min_cycle;Max_cycle;Signal;HPM_P1;HPM_P2
2021/09/15 00:02:04;;;;;;;8.10;6.50;;;;;;;17.64;80.27;100595.23;110880;1206;62790;-75
2021/09/15 00:04:31;;;;;;;10.90;5.40;;;;;;;17.63;80.23;100587.48;110858;1206;72563;-75
2021/09/15 00:06:57;;;;;;;6.30;5.00;;;;;;;17.61;80.26;100589.05;111100;1203;61764;-75
2021/09/15 00:09:23;;;;;;;10.90;6.20;;;;;;;17.61;80.28;100595.58;110901;1205;61905;-76
2021/09/15 00:12:10;;;;;;;10.30;6.40;;;;;;;17.58;80.30;100597.98;111054;1205;59288;-75
2021/09/15 00:14:48;;;;;;;8.50;6.50;;;;;;;17.53;80.30;100598.53;110898;1198;70379;-75
2021/09/15 00:17:15;;;;;;;9.10;6.30;;;;;;;17.50;80.43;100590.61;112857;1198;73570;-74
2021/09/15 00:19:41;;;;;;;9.90;6.10;;;;;;;17.46;80.47;100588.75;110770;1206;61897;-75
2021/09/15 00:22:08;;;;;;;8.00;5.90;;;;;;;17.41;80.63;100585.49;110841;1205;61914;-75
2021/09/15 00:24:34;;;;;;;11.40;6.30;;;;;;;17.36;80.93;100584.70;110858;1205;61863;-75
2021/09/15 00:27:01;;;;;;;7.80;6.40;;;;;;;17.31;81.11;100581.29;110859;1205;61906;-75
2021/09/15 00:29:27;;;;;;;9.50;6.00;;;;;;;17.27;81.57;100581.86;110969;1198;61908;-75
2021/09/15 00:31:54;;;;;;;9.70;6.70;;;;;;;17.23;81.76;100582.51;110866;1205;61848;-76
2021/09/15 00:34:20;;;;;;;12.20;6.60;;;;;;;17.22;81.98;100585.50;110938;1205;61857;-74
2021/09/15 00:36:50;;;;;;;9.80;6.60;;;;;;;17.22;82.29;100587.60;110965;1205;62391;-76
2021/09/15 00:39:16;;;;;;;7.90;5.90;;;;;;;17.22;82.39;100594.36;111095;1205;71899;-75
2021/09/15 00:41:43;;;;;;;8.10;6.30;;;;;;;17.23;82.38;100588.91;110920;1205;62328;-75
2021/09/15 00:44:10;;;;;;;9.10;7.20;;;;;;;17.23;82.41;100586.41;110829;1206;61792;-74
2021/09/15 00:46:38;;;;;;;9.70;6.30;;;;;;;17.25;82.38;100582.23;110854;1205;61836;-75
2021/09/15 00:49:06;;;;;;;11.10;5.80;;;;;;;17.27;82.44;100578.55;110938;1205;76328;-75
2021/09/15 00:51:35;;;;;;;9.70;6.50;;;;;;;17.30;82.47;100574.98;110812;1205;70901;-75
2021/09/15 00:54:11;;;;;;;9.00;7.50;;;;;;;17.33;82.41;100569.02;111028;1205;73703;-75
2021/09/15 00:56:57;;;;;;;12.50;7.10;;;;;;;17.36;82.43;100564.98;111278;1205;62718;-75
2021/09/15 00:59:24;;;;;;;12.00;7.40;;;;;;;17.37;82.37;100568.27;111397;1205;62083;-75
2021/09/15 01:01:51;;;;;;;11.00;6.30;;;;;;;17.35;82.06;100564.61;110887;1203;62052;-76
2021/09/15 01:04:18;;;;;;;9.60;6.60;;;;;;;17.32;82.10;100561.22;110952;1203;70246;-75
2021/09/15 01:06:44;;;;;;;11.80;6.40;;;;;;;17.30;82.20;100557.90;110852;1205;72675;-75
2021/09/15 01:09:11;;;;;;;7.50;6.10;;;;;;;17.30;82.24;100553.70;110849;1205;61918;-75
2021/09/15 01:11:38;;;;;;;9.50;6.10;;;;;;;17.29;82.23;100549.79;110864;1206;61895;-75
2021/09/15 01:14:05;;;;;;;9.10;6.80;;;;;;;17.28;82.39;100548.64;110841;1206;62001;-75
2021/09/15 01:16:56;;;;;;;8.20;6.60;;;;;;;17.27;82.44;100548.52;110847;1205;70917;-75
2021/09/15 01:19:23;;;;;;;10.00;6.80;;;;;;;17.26;82.49;100550.97;110860;1199;73663;-76
2021/09/15 01:21:51;;;;;;;10.70;7.20;;;;;;;17.25;82.51;100556.44;110853;1205;61902;-75
2021/09/15 01:24:18;;;;;;;8.00;6.30;;;;;;;17.22;82.62;100558.72;111058;1197;61947;-75
2021/09/15 01:26:47;;;;;;;10.30;7.20;;;;;;;17.18;82.76;100561.27;111001;1198;75632;-75
2021/09/15 01:29:16;;;;;;;9.00;6.80;;;;;;;17.15;82.95;100557.69;111366;1198;70921;-75
2021/09/15 01:32:07;;;;;;;11.60;6.30;;;;;;;17.11;83.06;100556.73;111770;1198;73547;-77
2021/09/15 01:34:45;;;;;;;7.20;6.00;;;;;;;17.07;83.15;100551.78;110870;1205;61911;-76
2021/09/15 01:37:13;;;;;;;9.30;6.50;;;;;;;17.05;83.35;100553.48;111026;1205;61818;-76
2021/09/15 01:39:40;;;;;;;10.50;6.30;;;;;;;17.03;83.33;100557.35;110873;1205;75396;-77
2021/09/15 01:42:09;;;;;;;9.80;6.60;;;;;;;17.03;83.52;100564.20;110856;1205;71049;-76
2021/09/15 01:44:39;;;;;;;10.90;7.00;;;;;;;17.01;83.69;100556.46;111035;1205;73537;-75
2021/09/15 01:47:08;;;;;;;12.10;7.90;;;;;;;17.00;83.72;100553.92;111260;1206;61949;-76
2021/09/15 01:49:38;;;;;;;9.90;7.60;;;;;;;16.98;83.93;100550.92;111075;1200;61918;-75
2021/09/15 01:52:07;;;;;;;11.70;7.80;;;;;;;16.97;84.06;100555.10;111075;1205;75453;-75
2021/09/15 01:54:34;;;;;;;9.10;6.40;;;;;;;16.97;84.11;100549.98;110991;1197;70850;-75
2021/09/15 01:57:09;;;;;;;11.10;6.90;;;;;;;16.98;84.14;100549.11;111083;1205;72510;-75
2021/09/15 01:59:44;;;;;;;8.60;6.80;;;;;;;17.01;84.33;100546.82;110851;1201;61820;-75
2021/09/15 02:02:11;;;;;;;9.00;7.10;;;;;;;17.04;84.25;100544.21;110988;1207;61818;-75
2021/09/15 02:04:54;;;;;;;10.80;7.30;;;;;;;17.05;84.29;100546.15;111272;1198;61975;-76
2021/09/15 02:07:35;;;;;;;9.60;7.20;;;;;;;17.08;84.49;100544.10;111235;1206;72327;-76
2021/09/15 02:10:10;;;;;;;8.50;6.70;;;;;;;17.11;84.32;100542.64;110950;1200;72605;-73
2021/09/15 02:12:39;;;;;;;9.60;7.30;;;;;;;17.08;84.04;100541.80;110963;1201;61860;-75
2021/09/15 02:15:09;;;;;;;8.70;6.40;;;;;;;17.06;84.09;100546.22;111199;1205;61901;-76
2021/09/15 02:17:36;;;;;;;10.50;7.70;;;;;;;17.04;84.26;100545.50;111060;1205;76436;-75
2021/09/15 02:20:05;;;;;;;6.20;5.20;;;;;;;17.01;84.43;100542.64;111005;1205;71979;-75
2021/09/15 02:22:31;;;;;;;9.30;6.50;;;;;;;17.01;84.55;100541.94;110878;1205;72856;-75
2021/09/15 02:24:58;;;;;;;11.40;6.90;;;;;;;17.01;84.63;100539.52;110919;1205;61910;-75
2021/09/15 02:27:25;;;;;;;9.10;6.10;;;;;;;17.01;84.57;100534.48;110856;1205;61927;-76
2021/09/15 02:29:51;;;;;;;9.30;6.80;;;;;;;17.01;84.69;100532.67;110826;1205;61882;-74
2021/09/15 02:32:18;;;;;;;9.20;6.60;;;;;;;16.99;84.71;100528.27;110912;1197;61790;-76
2021/09/15 02:34:46;;;;;;;10.60;6.90;;;;;;;16.97;84.77;100527.30;110875;1205;62034;-76
2021/09/15 02:37:12;;;;;;;9.50;7.40;;;;;;;16.94;85.02;100523.27;110807;1206;61805;-75
2021/09/15 02:39:39;;;;;;;9.80;7.30;;;;;;;16.92;85.14;100524.52;110855;1206;61873;-74
2021/09/15 02:42:05;;;;;;;8.90;6.10;;;;;;;16.89;85.13;100520.79;110859;1206;61962;-75
2021/09/15 02:44:32;;;;;;;10.60;7.20;;;;;;;16.88;85.36;100525.26;110849;1198;61838;-75
2021/09/15 02:46:58;;;;;;;8.60;6.80;;;;;;;16.86;85.57;100521.48;111360;1198;61887;-76
2021/09/15 02:49:27;;;;;;;9.80;6.80;;;;;;;16.85;85.75;100518.36;111231;1198;61142;-74
2021/09/15 02:52:23;;;;;;;9.40;6.70;;;;;;;16.84;85.89;100515.31;111063;1205;61865;-75
2021/09/15 02:55:05;;;;;;;7.00;6.30;;;;;;;16.80;86.06;100511.92;110915;1206;74266;-74
2021/09/15 02:57:32;;;;;;;8.00;6.70;;;;;;;16.79;86.35;100513.98;110886;1205;70899;-75
2021/09/15 02:59:58;;;;;;;9.70;7.20;;;;;;;16.79;86.48;100508.28;110884;1198;61903;-75
2021/09/15 03:02:25;;;;;;;9.70;7.20;;;;;;;16.79;86.61;100501.11;110831;1205;62575;-75
2021/09/15 03:04:51;;;;;;;9.90;6.70;;;;;;;16.81;86.66;100498.44;110861;1206;61917;-74
2021/09/15 03:07:18;;;;;;;11.40;7.30;;;;;;;16.82;86.72;100495.42;110889;1200;61844;-74
2021/09/15 03:09:44;;;;;;;8.00;6.50;;;;;;;16.82;86.70;100499.45;110805;1197;61793;-76
2021/09/15 03:12:11;;;;;;;9.50;6.50;;;;;;;16.83;86.88;100497.02;110881;1197;61896;-76
2021/09/15 03:14:37;;;;;;;9.60;7.00;;;;;;;16.84;86.86;100497.46;111025;1206;61862;-76
2021/09/15 03:17:04;;;;;;;7.10;5.90;;;;;;;16.85;86.89;100489.42;110823;1198;62452;-75
2021/09/15 03:19:30;;;;;;;8.70;5.50;;;;;;;16.86;86.89;100488.02;110809;1206;62016;-75
2021/09/15 03:22:07;;;;;;;10.40;6.80;;;;;;;16.88;86.99;100488.54;110684;1206;62006;-77
2021/09/15 03:24:33;;;;;;;9.30;6.70;;;;;;;16.87;86.99;100491.58;111085;1199;72611;-76
2021/09/15 03:27:03;;;;;;;9.90;7.30;;;;;;;16.88;87.20;100489.14;110876;1205;61819;-75
2021/09/15 03:29:32;;;;;;;9.60;7.30;;;;;;;16.90;86.98;100480.30;111142;1196;61883;-76
2021/09/15 03:31:59;;;;;;;11.00;7.70;;;;;;;16.92;86.94;100480.08;110854;1205;75388;-75
2021/09/15 03:34:26;;;;;;;8.60;6.40;;;;;;;16.94;86.88;100475.96;110839;1206;72474;-76
2021/09/15 03:36:55;;;;;;;9.10;6.70;;;;;;;16.95;86.99;100471.34;110840;1206;73141;-76
2021/09/15 03:39:22;;;;;;;10.70;6.60;;;;;;;16.98;86.88;100467.20;110913;1206;62097;-78
2021/09/15 03:41:49;;;;;;;10.00;6.90;;;;;;;16.99;86.76;100461.54;110898;1197;61910;-76
2021/09/15 03:44:15;;;;;;;9.50;7.00;;;;;;;16.99;86.87;100462.94;110891;1205;75497;-75
2021/09/15 03:46:42;;;;;;;8.60;6.50;;;;;;;17.01;86.98;100457.84;110880;1205;61894;-75
2021/09/15 03:49:08;;;;;;;11.90;6.40;;;;;;;17.03;86.91;100460.00;111025;1205;61791;-76
2021/09/15 03:51:35;;;;;;;7.30;5.90;;;;;;;17.02;86.91;100463.40;110871;1205;61908;-76
2021/09/15 03:54:01;;;;;;;12.10;7.00;;;;;;;17.00;86.94;100458.67;110847;1205;61893;-75
2021/09/15 03:56:27;;;;;;;9.30;6.80;;;;;;;16.99;87.02;100452.22;110850;1206;62667;-76
2021/09/15 03:59:12;;;;;;;7.60;5.70;;;;;;;16.99;87.05;100456.34;110920;1205;61899;-76
2021/09/15 04:01:44;;;;;;;8.30;6.00;;;;;;;16.97;87.13;100451.05;110807;1199;72633;-76
2021/09/15 04:04:11;;;;;;;13.20;7.40;;;;;;;16.95;87.24;100448.52;110895;1206;61905;-74
2021/09/15 04:06:38;;;;;;;8.30;6.40;;;;;;;16.95;87.43;100448.50;110843;1205;61883;-76
2021/09/15 04:09:05;;;;;;;9.00;6.90;;;;;;;16.95;87.47;100448.14;110869;1205;62002;-75
2021/09/15 04:11:31;;;;;;;8.20;6.40;;;;;;;16.95;87.51;100448.17;110905;1206;70943;-75
2021/09/15 04:14:01;;;;;;;7.30;5.70;;;;;;;16.97;87.69;100447.65;110805;1206;61906;-78
2021/09/15 04:16:28;;;;;;;10.60;7.30;;;;;;;16.97;87.56;100447.61;110943;1206;61860;-76
2021/09/15 04:18:54;;;;;;;10.40;7.10;;;;;;;16.97;87.62;100439.62;110805;1206;62037;-77
2021/09/15 04:21:20;;;;;;;9.00;7.50;;;;;;;16.97;87.59;100441.56;110891;1206;61835;-75
2021/09/15 04:32:03;;;;;;;7.40;6.40;;;;;;;16.97;87.67;100440.56;110817;1206;61868;-75
2021/09/15 04:34:29;;;;;;;11.10;7.00;;;;;;;16.98;87.66;100438.09;110908;1205;76352;-76
2021/09/15 04:37:00;;;;;;;8.80;7.00;;;;;;;16.99;87.70;100437.00;110868;1206;61896;-76
2021/09/15 04:39:26;;;;;;;9.90;7.60;;;;;;;16.99;87.61;100432.00;111074;1200;72553;-75
2021/09/15 04:41:52;;;;;;;10.70;6.60;;;;;;;17.00;87.75;100430.56;110874;1205;61906;-75
2021/09/15 04:44:19;;;;;;;11.70;7.00;;;;;;;17.02;87.83;100429.84;110974;1205;61908;-78
2021/09/15 04:46:45;;;;;;;9.70;7.50;;;;;;;17.04;88.01;100431.91;110961;1205;61992;-78
2021/09/15 04:49:12;;;;;;;9.30;6.70;;;;;;;17.07;87.74;100432.57;110763;1199;61878;-77
2021/09/15 04:51:38;;;;;;;10.20;6.70;;;;;;;17.10;87.57;100433.45;110665;1206;61846;-78
2021/09/15 04:54:25;;;;;;;14.20;7.70;;;;;;;17.11;87.41;100431.76;111109;1205;62995;-78
2021/09/15 04:57:01;;;;;;;9.30;7.10;;;;;;;17.13;87.38;100433.75;110876;1198;61004;-77
2021/09/15 04:59:28;;;;;;;8.20;7.30;;;;;;;17.15;87.30;100430.14;110910;1206;76827;-77
2021/09/15 05:01:54;;;;;;;7.90;7.00;;;;;;;17.15;87.29;100427.30;111170;1198;61968;-78
2021/09/15 05:04:21;;;;;;;10.50;7.30;;;;;;;17.13;87.12;100426.58;110882;1205;61902;-77
2021/09/15 05:06:47;;;;;;;10.10;7.70;;;;;;;17.09;87.07;100429.09;110940;1199;61906;-78
2021/09/15 05:09:14;;;;;;;12.10;7.00;;;;;;;17.08;87.09;100429.39;110824;1200;61906;-78
2021/09/15 05:11:50;;;;;;;9.90;6.50;;;;;;;17.06;87.05;100429.42;110969;1206;61920;-77
2021/09/15 05:14:35;;;;;;;11.40;7.60;;;;;;;17.03;87.06;100428.42;113699;1197;70618;-77
2021/09/15 05:17:15;;;;;;;12.80;6.40;;;;;;;17.01;87.04;100432.86;111074;1202;71490;-77
2021/09/15 05:19:41;;;;;;;9.50;6.90;;;;;;;16.98;87.00;100435.54;110862;1205;61890;-78
2021/09/15 05:22:08;;;;;;;9.00;6.60;;;;;;;16.96;87.08;100436.58;110860;1205;62799;-77
2021/09/15 05:24:34;;;;;;;8.90;7.00;;;;;;;16.95;87.11;100436.88;110981;1202;61774;-79
2021/09/15 05:27:01;;;;;;;8.90;7.10;;;;;;;16.95;87.08;100439.13;110983;1199;61932;-78
2021/09/15 05:29:27;;;;;;;9.10;6.70;;;;;;;16.93;87.13;100439.66;110951;1205;61860;-78
2021/09/15 05:31:54;;;;;;;11.40;7.20;;;;;;;16.91;87.10;100436.23;111582;1205;61895;-78
2021/09/15 05:34:21;;;;;;;11.10;8.10;;;;;;;16.89;87.34;100438.64;111070;1205;62532;-78
2021/09/15 05:36:57;;;;;;;12.10;6.60;;;;;;;16.89;87.38;100437.16;111021;1205;75430;-78
2021/09/15 05:39:27;;;;;;;11.80;7.50;;;;;;;16.91;87.32;100432.67;110978;1206;70446;-78
2021/09/15 05:41:53;;;;;;;13.90;6.50;;;;;;;16.92;87.35;100430.90;110994;1205;62263;-77
2021/09/15 05:44:20;;;;;;;14.60;7.30;;;;;;;16.95;87.50;100428.56;110876;1206;61878;-77
2021/09/15 05:46:46;;;;;;;12.20;8.30;;;;;;;17.00;87.46;100427.76;110843;1205;61864;-78
2021/09/15 05:49:13;;;;;;;9.50;6.90;;;;;;;17.07;87.53;100427.80;110878;1205;61857;-78
2021/09/15 05:51:39;;;;;;;9.40;6.60;;;;;;;17.14;87.43;100422.15;110913;1206;61873;-77
2021/09/15 05:54:08;;;;;;;12.40;7.60;;;;;;;17.19;87.15;100420.47;111056;1205;62216;-78
2021/09/15 05:56:34;;;;;;;9.80;7.40;;;;;;;17.22;86.92;100417.88;111176;1205;61876;-79
2021/09/15 05:59:01;;;;;;;12.40;6.80;;;;;;;17.24;86.54;100418.48;110987;1205;60425;-77
2021/09/15 06:01:27;;;;;;;12.00;8.10;;;;;;;17.26;86.40;100417.52;110935;1205;61934;-79
2021/09/15 06:03:54;;;;;;;9.80;6.10;;;;;;;17.30;86.52;100420.92;110967;1205;71000;-78
2021/09/15 06:06:20;;;;;;;11.70;6.70;;;;;;;17.34;86.36;100425.61;110974;1205;61872;-78
2021/09/15 06:08:47;;;;;;;11.40;7.70;;;;;;;17.38;86.46;100422.05;111277;1205;61898;-78
2021/09/15 06:11:13;;;;;;;8.80;7.00;;;;;;;17.47;86.35;100424.94;111146;1205;61801;-78
2021/09/15 06:13:40;;;;;;;10.40;6.60;;;;;;;17.54;86.15;100422.96;111139;1205;61912;-78
2021/09/15 06:16:08;;;;;;;9.80;7.00;;;;;;;17.61;86.20;100417.54;111085;1199;70945;-76
2021/09/15 06:18:34;;;;;;;10.70;6.70;;;;;;;17.70;86.11;100413.58;111151;1206;72499;-77
2021/09/15 06:21:31;;;;;;;9.00;6.60;;;;;;;17.76;85.83;100413.77;111018;1200;61786;-77
2021/09/15 06:25:15;;;;;;;9.70;6.90;;;;;;;17.83;85.68;100411.04;111270;1200;61770;-78
2021/09/15 06:28:03;;;;;;;9.80;6.40;;;;;;;17.89;85.62;100415.21;111258;1201;74054;-79
2021/09/15 06:30:52;;;;;;;12.20;5.80;;;;;;;17.92;85.55;100419.79;110977;1206;72163;-80
2021/09/15 06:33:18;;;;;;;9.40;6.50;;;;;;;17.94;85.33;100421.61;111102;1199;73853;-78
2021/09/15 06:35:46;;;;;;;11.40;7.40;;;;;;;17.95;85.21;100421.35;110976;1206;62637;-77
2021/09/15 06:38:12;;;;;;;8.90;6.70;;;;;;;17.95;85.28;100418.30;111184;1205;61886;-77
2021/09/15 06:40:40;;;;;;;9.60;6.50;;;;;;;17.96;85.32;100423.03;111120;1205;75368;-78
2021/09/15 06:43:07;;;;;;;15.90;8.10;;;;;;;17.96;85.17;100422.78;111085;1206;71008;-77
2021/09/15 06:45:34;;;;;;;10.20;6.60;;;;;;;17.99;85.35;100422.81;111049;1205;72404;-77
2021/09/15 06:48:21;;;;;;;11.60;7.10;;;;;;;18.01;85.09;100424.48;111137;1205;62938;-79
2021/09/15 06:50:48;;;;;;;9.10;6.30;;;;;;;18.06;85.16;100425.61;111283;1206;61838;-78
2021/09/15 06:53:14;;;;;;;10.60;6.50;;;;;;;18.09;85.13;100424.19;111016;1206;61809;-80
2021/09/15 06:55:40;;;;;;;11.10;6.80;;;;;;;18.10;85.00;100425.08;111203;1205;61991;-80
2021/09/15 06:58:07;;;;;;;12.50;6.70;;;;;;;18.11;85.13;100427.73;110919;1205;61869;-78
2021/09/15 07:00:35;;;;;;;9.60;6.90;;;;;;;18.12;85.13;100424.25;110990;1206;61900;-78
2021/09/15 07:03:02;;;;;;;10.90;5.40;;;;;;;18.11;85.12;100424.04;111363;1205;61840;-78
2021/09/15 07:05:30;;;;;;;10.80;7.00;;;;;;;18.09;85.07;100427.51;111287;1205;75595;-77
2021/09/15 07:07:57;;;;;;;9.00;6.70;;;;;;;18.08;85.07;100426.40;111065;1205;72055;-79
2021/09/15 07:10:23;;;;;;;9.20;6.20;;;;;;;18.08;85.20;100427.38;110863;1205;72332;-78
2021/09/15 07:12:58;;;;;;;11.80;6.60;;;;;;;18.09;85.14;100430.05;110921;1199;62001;-79
2021/09/15 07:15:48;;;;;;;9.40;7.00;;;;;;;18.10;85.02;100435.31;111185;1200;62171;-80
2021/09/15 07:18:21;;;;;;;12.20;7.70;;;;;;;18.10;85.20;100442.55;110941;1206;77315;-77
2021/09/15 07:20:48;;;;;;;11.90;8.30;;;;;;;18.07;85.47;100438.91;110970;1206;61812;-76
2021/09/15 07:23:14;;;;;;;12.50;7.40;;;;;;;18.05;85.58;100436.92;110879;1206;61826;-78
2021/09/15 07:25:41;;;;;;;10.30;6.90;;;;;;;18.03;85.54;100434.55;111292;1205;61786;-79
2021/09/15 07:28:07;;;;;;;11.30;8.20;;;;;;;18.03;85.49;100432.63;111171;1205;61906;-79
2021/09/15 07:30:34;;;;;;;10.10;7.30;;;;;;;18.02;85.68;100426.33;111171;1205;61895;-79
2021/09/15 07:33:00;;;;;;;9.60;6.80;;;;;;;18.01;85.95;100419.95;111026;1199;61869;-78
2021/09/15 07:35:27;;;;;;;9.40;6.80;;;;;;;18.00;86.50;100424.38;111391;1206;62474;-78
2021/09/15 07:37:53;;;;;;;7.40;6.30;;;;;;;18.00;86.87;100422.39;110913;1205;61843;-78
2021/09/15 07:40:20;;;;;;;7.50;5.20;;;;;;;17.98;87.00;100420.73;111058;1205;61889;-76
2021/09/15 07:42:47;;;;;;;8.90;7.10;;;;;;;17.96;87.52;100418.64;111053;1205;62808;-78
2021/09/15 07:45:13;;;;;;;10.60;7.30;;;;;;;17.94;87.98;100421.98;110989;1203;62000;-78
2021/09/15 07:47:41;;;;;;;11.00;6.80;;;;;;;17.93;88.37;100423.31;110948;1205;61777;-78
2021/09/15 07:50:09;;;;;;;14.40;7.20;;;;;;;17.96;88.68;100420.59;111003;1206;61952;-80
2021/09/15 07:52:43;;;;;;;9.50;7.50;;;;;;;17.98;88.77;100417.63;110997;1198;61906;-78
2021/09/15 07:55:15;;;;;;;9.90;6.70;;;;;;;18.00;89.03;100418.06;110888;1206;74190;-78
2021/09/15 07:57:43;;;;;;;9.20;6.40;;;;;;;18.05;89.33;100414.91;110956;1205;61879;-78
2021/09/15 08:00:11;;;;;;;9.80;6.40;;;;;;;18.14;89.50;100412.38;111071;1205;72453;-78
2021/09/15 08:02:59;;;;;;;8.10;5.70;;;;;;;18.27;89.43;100418.73;111129;1205;63337;-78
2021/09/15 08:05:28;;;;;;;10.50;6.00;;;;;;;18.45;89.17;100424.55;111150;1198;61903;-78
2021/09/15 08:07:57;;;;;;;8.80;6.70;;;;;;;18.56;89.31;100425.98;111057;1200;74205;-78
2021/09/15 08:10:23;;;;;;;7.70;5.60;;;;;;;18.68;89.01;100419.04;111082;1205;72198;-77
2021/09/15 08:12:50;;;;;;;10.10;6.40;;;;;;;18.84;89.11;100423.98;111042;1205;72287;-78
2021/09/15 08:15:16;;;;;;;10.30;6.80;;;;;;;18.97;88.87;100416.62;111094;1198;62344;-78
2021/09/15 08:17:44;;;;;;;6.40;4.90;;;;;;;19.14;88.96;100417.02;111075;1204;61928;-78
2021/09/15 08:20:11;;;;;;;9.30;6.10;;;;;;;19.32;88.65;100415.02;111037;1205;76479;-77
2021/09/15 08:22:38;;;;;;;7.50;4.40;;;;;;;19.52;88.43;100410.98;111146;1205;71195;-78
2021/09/15 08:25:05;;;;;;;6.50;5.00;;;;;;;19.72;88.15;100411.30;111151;1206;72706;-77
2021/09/15 08:27:32;;;;;;;6.50;5.20;;;;;;;19.89;87.34;100414.77;111066;1206;61783;-79
2021/09/15 08:29:59;;;;;;;10.30;6.00;;;;;;;20.03;86.47;100422.01;111145;1206;61860;-79
2021/09/15 08:32:26;;;;;;;12.40;8.30;;;;;;;20.15;85.89;100422.14;111271;1206;62799;-79
2021/09/15 08:34:52;;;;;;;9.60;5.50;;;;;;;20.21;85.57;100423.80;110986;1201;61785;-78
2021/09/15 08:37:18;;;;;;;7.50;5.00;;;;;;;20.31;85.60;100419.21;111103;1206;62374;-78
2021/09/15 08:39:45;;;;;;;6.00;4.50;;;;;;;20.39;85.70;100411.46;111131;1207;62343;-77
2021/09/15 08:42:12;;;;;;;5.40;4.00;;;;;;;20.50;86.00;100411.14;111296;1205;61904;-79
2021/09/15 08:44:38;;;;;;;8.80;5.10;;;;;;;20.57;85.78;100407.31;111071;1206;61870;-78
2021/09/15 08:47:06;;;;;;;7.80;5.20;;;;;;;20.65;85.77;100410.07;111296;1207;61780;-78
2021/09/15 08:49:34;;;;;;;24.40;7.70;;;;;;;20.75;85.36;100406.88;111285;1206;73039;-80
2021/09/15 08:52:00;;;;;;;5.60;4.60;;;;;;;20.85;85.55;100398.91;111224;1205;61915;-79
2021/09/15 08:54:28;;;;;;;6.40;4.90;;;;;;;20.94;85.36;100397.30;111346;1206;61374;-79
2021/09/15 08:56:54;;;;;;;5.50;3.90;;;;;;;21.04;85.29;100398.40;111209;1205;75321;-79
2021/09/15 08:59:20;;;;;;;5.60;4.10;;;;;;;21.13;85.18;100397.05;111440;1207;61901;-79
2021/09/15 09:01:48;;;;;;;5.30;4.30;;;;;;;21.24;84.84;100393.39;111091;1206;62288;-79
2021/09/15 09:04:16;;;;;;;9.00;5.60;;;;;;;21.36;84.46;100392.23;111207;1205;61816;-79
2021/09/15 09:06:49;;;;;;;5.30;4.00;;;;;;;21.46;83.68;100389.48;111076;1206;62426;-78
2021/09/15 09:09:15;;;;;;;6.50;5.00;;;;;;;21.53;83.23;100392.64;111076;1207;75991;-78
2021/09/15 09:11:46;;;;;;;8.70;4.30;;;;;;;21.63;83.08;100390.20;111217;1197;62240;-80
2021/09/15 09:14:12;;;;;;;5.50;4.30;;;;;;;21.72;82.63;100387.52;111462;1201;74010;-79
2021/09/15 09:16:45;;;;;;;5.70;4.60;;;;;;;21.81;82.97;100386.73;111222;1207;63360;-79
2021/09/15 09:19:14;;;;;;;8.20;4.90;;;;;;;21.95;82.79;100389.44;111218;1207;61802;-77
2021/09/15 09:21:45;;;;;;;9.20;5.10;;;;;;;22.13;81.81;100387.52;111182;1205;75513;-79
2021/09/15 09:24:12;;;;;;;7.60;5.10;;;;;;;22.30;81.04;100385.71;110885;1205;72060;-80
2021/09/15 09:26:56;;;;;;;6.80;4.50;;;;;;;22.46;80.76;100386.69;110925;1206;72851;-79
2021/09/15 09:29:27;;;;;;;7.20;4.60;;;;;;;22.68;80.12;100391.98;110924;1201;61809;-81
2021/09/15 09:32:01;;;;;;;5.50;4.70;;;;;;;22.87;78.82;100384.66;110945;1207;60010;-79
2021/09/15 09:34:30;;;;;;;6.80;4.40;;;;;;;23.05;77.36;100385.67;111361;1205;76346;-80
2021/09/15 09:37:00;;;;;;;8.20;4.20;;;;;;;23.18;75.64;100381.61;111206;1206;72530;-79
2021/09/15 09:39:37;;;;;;;4.80;3.70;;;;;;;23.26;73.90;100382.61;111101;1207;72558;-78
2021/09/15 09:42:24;;;;;;;4.70;3.80;;;;;;;23.27;73.91;100376.38;111164;1207;62050;-79
2021/09/15 09:45:06;;;;;;;6.90;4.40;;;;;;;23.28;74.09;100374.77;110956;1205;62708;-78
2021/09/15 09:47:35;;;;;;;6.80;5.00;;;;;;;23.34;73.65;100374.17;110974;1207;76113;-80
2021/09/15 09:50:10;;;;;;;5.60;4.90;;;;;;;23.42;73.07;100375.05;111138;1207;71039;-80
2021/09/15 09:53:00;;;;;;;6.20;3.70;;;;;;;23.55;73.66;100372.15;111340;1207;72307;-79
2021/09/15 09:55:37;;;;;;;4.70;3.70;;;;;;;23.79;73.74;100369.20;111179;1207;61993;-79
2021/09/15 09:58:11;;;;;;;6.50;4.80;;;;;;;24.01;72.99;100361.61;111114;1203;61878;-80
2021/09/15 10:00:38;;;;;;;5.90;3.90;;;;;;;24.17;72.32;100358.51;111207;1207;76502;-79
2021/09/15 10:03:04;;;;;;;8.40;4.10;;;;;;;24.22;71.86;100358.38;111158;1205;71019;-79
2021/09/15 10:05:31;;;;;;;6.30;4.10;;;;;;;24.23;71.42;100354.64;111017;1207;61886;-79
2021/09/15 10:08:00;;;;;;;7.50;4.50;;;;;;;24.28;71.36;100348.19;110997;1206;68952;-78
2021/09/15 10:10:27;;;;;;;4.70;3.60;;;;;;;24.35;71.42;100350.65;111056;1206;61929;-78
2021/09/15 10:12:55;;;;;;;6.80;3.90;;;;;;;24.43;70.44;100347.98;111042;1206;76084;-78
2021/09/15 10:15:22;;;;;;;7.00;3.60;;;;;;;24.51;70.65;100339.19;110957;1206;72191;-79
2021/09/15 10:17:52;;;;;;;5.30;4.20;;;;;;;24.54;69.27;100333.77;110911;1198;72492;-79
2021/09/15 10:20:28;;;;;;;4.50;4.00;;;;;;;24.56;68.48;100332.03;111170;1205;61872;-79
2021/09/15 10:22:54;;;;;;;7.10;4.30;;;;;;;24.55;67.83;100331.81;111164;1198;61890;-79
2021/09/15 10:25:40;;;;;;;4.30;3.60;;;;;;;24.52;68.22;100332.80;111130;1199;76421;-78
2021/09/15 10:28:09;;;;;;;5.50;3.80;;;;;;;24.42;68.62;100331.60;111001;1207;72170;-79
2021/09/15 10:31:04;;;;;;;7.10;4.60;;;;;;;24.36;68.84;100328.59;110998;1205;72548;-79
2021/09/15 10:33:45;;;;;;;7.30;5.20;;;;;;;24.28;69.59;100325.09;111146;1207;61889;-80
2021/09/15 10:36:11;;;;;;;6.60;4.60;;;;;;;24.18;70.07;100326.69;110995;1205;61831;-79
2021/09/15 10:38:57;;;;;;;5.20;4.10;;;;;;;24.10;70.64;100324.15;111025;1205;76393;-79
2021/09/15 10:41:30;;;;;;;7.30;5.10;;;;;;;24.01;70.29;100322.28;110942;1205;70983;-78
2021/09/15 10:44:09;;;;;;;7.30;5.10;;;;;;;23.91;69.99;100320.99;110988;1207;72673;-78
2021/09/15 10:46:37;;;;;;;6.10;4.50;;;;;;;23.79;70.48;100319.05;111110;1205;61908;-79
2021/09/15 10:49:22;;;;;;;6.70;5.20;;;;;;;23.68;70.71;100321.25;111100;1206;61984;-80
2021/09/15 10:52:07;;;;;;;9.00;6.30;;;;;;;23.58;71.77;100325.36;111169;1206;76500;-79
2021/09/15 10:54:55;;;;;;;;;;;;;;;23.53;72.14;100328.28;111001;1206;71222;-80
2021/09/15 10:57:35;;;;;;;10.60;6.00;;;;;;;23.44;72.41;100330.02;111448;1206;73608;-80
2021/09/15 11:00:10;;;;;;;8.70;5.30;;;;;;;23.34;72.96;100329.24;112175;1205;61992;-80
2021/09/15 11:02:41;;;;;;;7.10;5.00;;;;;;;23.25;72.94;100331.20;112470;1205;61905;-79
2021/09/15 11:05:26;;;;;;;6.30;5.10;;;;;;;23.17;73.59;100327.06;112234;1206;75530;-82
2021/09/15 11:07:57;;;;;;;7.30;5.50;;;;;;;23.13;74.41;100325.33;111846;1206;72410;-78
2021/09/15 11:10:48;;;;;;;5.90;4.80;;;;;;;23.10;74.58;100321.46;112148;1205;71310;-80
2021/09/15 11:13:27;;;;;;;7.70;5.80;;;;;;;23.14;74.94;100318.45;112104;1205;61873;-79
2021/09/15 11:15:54;;;;;;;9.20;6.10;;;;;;;23.27;74.52;100314.61;111683;1205;61704;-80
2021/09/15 11:18:27;;;;;;;7.30;5.00;;;;;;;23.37;74.18;100314.58;111752;1201;76474;-78
2021/09/15 11:21:10;;;;;;;6.50;5.70;;;;;;;23.49;73.39;100305.59;111782;1200;71413;-79
2021/09/15 11:23:37;;;;;;;8.40;6.10;;;;;;;23.66;72.91;100306.79;111771;1198;73956;-79
2021/09/15 11:26:05;;;;;;;6.40;5.30;;;;;;;23.83;73.12;100304.58;111921;1201;61897;-79
2021/09/15 11:28:32;;;;;;;9.00;5.40;;;;;;;24.10;73.19;100300.58;111828;1203;61795;-79
2021/09/15 11:31:03;;;;;;;6.30;4.90;;;;;;;24.35;71.60;100298.44;111951;1206;75582;-80
2021/09/15 11:33:36;;;;;;;5.80;5.20;;;;;;;24.52;70.36;100296.89;111655;1205;70802;-79
2021/09/15 11:36:06;;;;;;;5.60;4.90;;;;;;;24.70;70.86;100294.52;111789;1206;72578;-79
2021/09/15 11:38:36;;;;;;;6.40;4.80;;;;;;;24.84;70.27;100289.58;111860;1203;63185;-79